sensor_id;sensor_type;location;lat;lon;timestamp;P1;durP1;ratioP1;P2;durP2;ratioP2
63965;SDS011;50151;52.030;5.350;2023-04-12T00:02:16;7.05;;;1.70;;
63965;SDS011;50151;52.030;5.350;2023-04-12T00:04:43;7.28;;;1.60;;
63965;SDS011;50151;52.030;5.350;2023-04-12T00:07:10;5.28;;;1.38;;
63965;SDS011;50151;52.030;5.350;2023-04-12T00:09:37;6.32;;;1.63;;
63965;SDS011;50151;52.030;5.350;2023-04-12T00:12:04;4.55;;;1.27;;
63965;SDS011;50151;52.030;5.350;2023-04-12T00:14:31;5.10;;;1.25;;
63965;SDS011;50151;52.030;5.350;2023-04-12T00:16:58;3.30;;;1.15;;
63965;SDS011;50151;52.030;5.350;2023-04-12T00:19:25;4.93;;;1.10;;
63965;SDS011;50151;52.030;5.350;2023-04-12T00:21:52;5.43;;;1.30;;
63965;SDS011;50151;52.030;5.350;2023-04-12T00:24:19;3.15;;;0.90;;
63965;SDS011;50151;52.030;5.350;2023-04-12T00:26:46;4.70;;;0.90;;
63965;SDS011;50151;52.030;5.350;2023-04-12T00:29:12;3.78;;;1.02;;
63965;SDS011;50151;52.030;5.350;2023-04-12T00:31:40;5.22;;;1.17;;
63965;SDS011;50151;52.030;5.350;2023-04-12T00:34:07;2.42;;;1.02;;
63965;SDS011;50151;52.030;5.350;2023-04-12T00:36:34;2.33;;;0.93;;
63965;SDS011;50151;52.030;5.350;2023-04-12T00:39:01;3.72;;;1.00;;
63965;SDS011;50151;52.030;5.350;2023-04-12T00:41:27;3.85;;;0.80;;
63965;SDS011;50151;52.030;5.350;2023-04-12T00:43:54;3.40;;;0.85;;
63965;SDS011;50151;52.030;5.350;2023-04-12T00:46:22;1.92;;;0.60;;
63965;SDS011;50151;52.030;5.350;2023-04-12T00:48:48;2.75;;;0.70;;
63965;SDS011;50151;52.030;5.350;2023-04-12T00:51:15;2.28;;;0.68;;
63965;SDS011;50151;52.030;5.350;2023-04-12T00:53:43;5.22;;;0.80;;
63965;SDS011;50151;52.030;5.350;2023-04-12T00:56:10;4.97;;;1.30;;
63965;SDS011;50151;52.030;5.350;2023-04-12T00:58:37;2.90;;;1.00;;
63965;SDS011;50151;52.030;5.350;2023-04-12T01:01:04;5.57;;;1.38;;
63965;SDS011;50151;52.030;5.350;2023-04-12T01:03:31;6.55;;;1.30;;
63965;SDS011;50151;52.030;5.350;2023-04-12T01:09:02;3.53;;;1.25;;
63965;SDS011;50151;52.030;5.350;2023-04-12T01:14:59;4.15;;;1.35;;
63965;SDS011;50151;52.030;5.350;2023-04-12T01:17:30;10.10;;;1.40;;
63965;SDS011;50151;52.030;5.350;2023-04-12T01:20:06;2.50;;;1.17;;
63965;SDS011;50151;52.030;5.350;2023-04-12T01:31:03;4.53;;;1.13;;
63965;SDS011;50151;52.030;5.350;2023-04-12T01:33:32;3.58;;;1.10;;
63965;SDS011;50151;52.030;5.350;2023-04-12T01:36:02;3.75;;;1.17;;
63965;SDS011;50151;52.030;5.350;2023-04-12T01:38:36;4.38;;;1.20;;
63965;SDS011;50151;52.030;5.350;2023-04-12T01:41:04;3.00;;;1.33;;
63965;SDS011;50151;52.030;5.350;2023-04-12T01:43:34;3.25;;;1.05;;
63965;SDS011;50151;52.030;5.350;2023-04-12T01:46:06;7.60;;;1.58;;
63965;SDS011;50151;52.030;5.350;2023-04-12T01:48:33;3.33;;;1.20;;
63965;SDS011;50151;52.030;5.350;2023-04-12T01:51:04;7.25;;;1.45;;
63965;SDS011;50151;52.030;5.350;2023-04-12T01:53:49;7.97;;;1.52;;
63965;SDS011;50151;52.030;5.350;2023-04-12T01:56:18;6.20;;;1.23;;
63965;SDS011;50151;52.030;5.350;2023-04-12T01:58:47;3.80;;;1.05;;
63965;SDS011;50151;52.030;5.350;2023-04-12T02:01:16;2.75;;;0.88;;
63965;SDS011;50151;52.030;5.350;2023-04-12T02:03:44;8.32;;;1.42;;
63965;SDS011;50151;52.030;5.350;2023-04-12T02:06:15;6.32;;;1.38;;
63965;SDS011;50151;52.030;5.350;2023-04-12T02:08:47;3.80;;;1.10;;
63965;SDS011;50151;52.030;5.350;2023-04-12T02:11:14;5.75;;;1.30;;
63965;SDS011;50151;52.030;5.350;2023-04-12T02:13:41;6.13;;;1.60;;
63965;SDS011;50151;52.030;5.350;2023-04-12T02:16:07;4.05;;;1.10;;
63965;SDS011;50151;52.030;5.350;2023-04-12T02:18:36;4.05;;;1.55;;
63965;SDS011;50151;52.030;5.350;2023-04-12T02:21:02;4.68;;;1.30;;
63965;SDS011;50151;52.030;5.350;2023-04-12T02:23:29;4.43;;;1.35;;
63965;SDS011;50151;52.030;5.350;2023-04-12T02:25:56;5.13;;;1.38;;
63965;SDS011;50151;52.030;5.350;2023-04-12T02:28:22;5.85;;;1.20;;
63965;SDS011;50151;52.030;5.350;2023-04-12T02:30:49;3.97;;;1.20;;
63965;SDS011;50151;52.030;5.350;2023-04-12T02:33:19;4.72;;;1.45;;
63965;SDS011;50151;52.030;5.350;2023-04-12T02:35:46;4.65;;;1.27;;
63965;SDS011;50151;52.030;5.350;2023-04-12T02:38:13;5.05;;;1.42;;
63965;SDS011;50151;52.030;5.350;2023-04-12T02:40:40;6.38;;;1.33;;
63965;SDS011;50151;52.030;5.350;2023-04-12T02:43:07;5.72;;;1.35;;
63965;SDS011;50151;52.030;5.350;2023-04-12T02:45:34;3.45;;;1.20;;
63965;SDS011;50151;52.030;5.350;2023-04-12T02:48:01;2.88;;;1.10;;
63965;SDS011;50151;52.030;5.350;2023-04-12T02:50:30;3.17;;;1.20;;
63965;SDS011;50151;52.030;5.350;2023-04-12T02:52:57;6.78;;;1.35;;
63965;SDS011;50151;52.030;5.350;2023-04-12T02:55:23;4.80;;;1.20;;
63965;SDS011;50151;52.030;5.350;2023-04-12T02:57:50;5.20;;;1.50;;
63965;SDS011;50151;52.030;5.350;2023-04-12T03:00:18;5.50;;;1.25;;
63965;SDS011;50151;52.030;5.350;2023-04-12T03:02:46;10.35;;;1.58;;
63965;SDS011;50151;52.030;5.350;2023-04-12T03:05:16;3.33;;;1.20;;
63965;SDS011;50151;52.030;5.350;2023-04-12T03:07:43;6.80;;;1.30;;
63965;SDS011;50151;52.030;5.350;2023-04-12T03:10:11;3.85;;;1.17;;
63965;SDS011;50151;52.030;5.350;2023-04-12T03:12:38;3.28;;;1.17;;
63965;SDS011;50151;52.030;5.350;2023-04-12T03:15:05;4.80;;;1.45;;
63965;SDS011;50151;52.030;5.350;2023-04-12T03:17:32;6.47;;;1.10;;
63965;SDS011;50151;52.030;5.350;2023-04-12T03:20:05;2.90;;;0.90;;
63965;SDS011;50151;52.030;5.350;2023-04-12T03:22:35;3.63;;;1.30;;
63965;SDS011;50151;52.030;5.350;2023-04-12T03:25:02;5.95;;;1.13;;
63965;SDS011;50151;52.030;5.350;2023-04-12T03:27:30;4.20;;;1.55;;
63965;SDS011;50151;52.030;5.350;2023-04-12T03:29:56;5.32;;;1.20;;
63965;SDS011;50151;52.030;5.350;2023-04-12T03:32:23;5.05;;;1.45;;
63965;SDS011;50151;52.030;5.350;2023-04-12T03:34:50;2.20;;;1.10;;
63965;SDS011;50151;52.030;5.350;2023-04-12T03:37:17;3.70;;;0.90;;
63965;SDS011;50151;52.030;5.350;2023-04-12T03:39:44;2.90;;;0.80;;
63965;SDS011;50151;52.030;5.350;2023-04-12T03:42:13;3.30;;;1.13;;
63965;SDS011;50151;52.030;5.350;2023-04-12T03:44:57;6.22;;;1.05;;
63965;SDS011;50151;52.030;5.350;2023-04-12T03:47:23;4.32;;;1.05;;
63965;SDS011;50151;52.030;5.350;2023-04-12T03:49:50;3.85;;;1.08;;
63965;SDS011;50151;52.030;5.350;2023-04-12T03:52:36;2.88;;;0.82;;
63965;SDS011;50151;52.030;5.350;2023-04-12T03:55:03;4.63;;;1.00;;
63965;SDS011;50151;52.030;5.350;2023-04-12T03:57:32;2.55;;;1.13;;
63965;SDS011;50151;52.030;5.350;2023-04-12T03:59:59;3.95;;;1.42;;
63965;SDS011;50151;52.030;5.350;2023-04-12T04:02:26;2.70;;;0.93;;
63965;SDS011;50151;52.030;5.350;2023-04-12T04:04:53;3.58;;;1.08;;
63965;SDS011;50151;52.030;5.350;2023-04-12T04:07:20;1.50;;;0.93;;
63965;SDS011;50151;52.030;5.350;2023-04-12T04:09:47;3.35;;;1.17;;
63965;SDS011;50151;52.030;5.350;2023-04-12T04:12:15;5.43;;;1.15;;
63965;SDS011;50151;52.030;5.350;2023-04-12T04:14:42;4.88;;;1.10;;
63965;SDS011;50151;52.030;5.350;2023-04-12T04:17:09;3.25;;;1.20;;
63965;SDS011;50151;52.030;5.350;2023-04-12T04:19:36;3.85;;;0.90;;
63965;SDS011;50151;52.030;5.350;2023-04-12T04:22:03;2.17;;;1.05;;
63965;SDS011;50151;52.030;5.350;2023-04-12T04:24:29;3.95;;;1.30;;
63965;SDS011;50151;52.030;5.350;2023-04-12T04:26:56;6.85;;;1.60;;
63965;SDS011;50151;52.030;5.350;2023-04-12T04:29:24;3.70;;;1.15;;
63965;SDS011;50151;52.030;5.350;2023-04-12T04:31:51;2.13;;;1.00;;
63965;SDS011;50151;52.030;5.350;2023-04-12T04:34:19;3.55;;;1.20;;
63965;SDS011;50151;52.030;5.350;2023-04-12T04:36:47;4.93;;;1.27;;
63965;SDS011;50151;52.030;5.350;2023-04-12T04:39:13;3.15;;;1.08;;
63965;SDS011;50151;52.030;5.350;2023-04-12T04:41:40;3.78;;;1.00;;
63965;SDS011;50151;52.030;5.350;2023-04-12T04:44:07;1.90;;;1.10;;
63965;SDS011;50151;52.030;5.350;2023-04-12T04:46:37;2.67;;;1.33;;
63965;SDS011;50151;52.030;5.350;2023-04-12T04:49:04;1.85;;;0.70;;
63965;SDS011;50151;52.030;5.350;2023-04-12T04:51:32;2.22;;;0.85;;
63965;SDS011;50151;52.030;5.350;2023-04-12T04:53:58;2.45;;;0.88;;
63965;SDS011;50151;52.030;5.350;2023-04-12T04:56:25;4.53;;;1.13;;
63965;SDS011;50151;52.030;5.350;2023-04-12T04:58:53;4.72;;;1.50;;
63965;SDS011;50151;52.030;5.350;2023-04-12T05:01:22;2.65;;;1.10;;
63965;SDS011;50151;52.030;5.350;2023-04-12T05:03:53;2.30;;;1.13;;
63965;SDS011;50151;52.030;5.350;2023-04-12T05:06:21;3.45;;;1.30;;
63965;SDS011;50151;52.030;5.350;2023-04-12T05:08:48;4.25;;;1.23;;
63965;SDS011;50151;52.030;5.350;2023-04-12T05:11:15;2.40;;;1.13;;
63965;SDS011;50151;52.030;5.350;2023-04-12T05:13:41;3.33;;;1.30;;
63965;SDS011;50151;52.030;5.350;2023-04-12T05:16:08;4.53;;;1.30;;
63965;SDS011;50151;52.030;5.350;2023-04-12T05:18:36;2.58;;;1.10;;
63965;SDS011;50151;52.030;5.350;2023-04-12T05:21:03;5.53;;;1.30;;
63965;SDS011;50151;52.030;5.350;2023-04-12T05:23:34;3.78;;;0.98;;
63965;SDS011;50151;52.030;5.350;2023-04-12T05:26:02;1.98;;;0.88;;
63965;SDS011;50151;52.030;5.350;2023-04-12T05:28:29;2.00;;;1.00;;
63965;SDS011;50151;52.030;5.350;2023-04-12T05:30:56;3.42;;;1.10;;
63965;SDS011;50151;52.030;5.350;2023-04-12T05:33:24;3.15;;;1.10;;
63965;SDS011;50151;52.030;5.350;2023-04-12T05:35:51;2.45;;;0.98;;
63965;SDS011;50151;52.030;5.350;2023-04-12T05:38:17;3.25;;;0.80;;
63965;SDS011;50151;52.030;5.350;2023-04-12T05:40:44;2.20;;;0.93;;
63965;SDS011;50151;52.030;5.350;2023-04-12T05:43:11;2.88;;;1.00;;
63965;SDS011;50151;52.030;5.350;2023-04-12T05:45:38;1.83;;;0.90;;
63965;SDS011;50151;52.030;5.350;2023-04-12T05:48:06;3.13;;;1.20;;
63965;SDS011;50151;52.030;5.350;2023-04-12T05:50:33;2.92;;;1.13;;
63965;SDS011;50151;52.030;5.350;2023-04-12T05:53:00;1.42;;;0.88;;
63965;SDS011;50151;52.030;5.350;2023-04-12T05:55:28;4.65;;;1.10;;
63965;SDS011;50151;52.030;5.350;2023-04-12T05:57:55;3.75;;;1.15;;
63965;SDS011;50151;52.030;5.350;2023-04-12T06:00:23;1.42;;;1.02;;
63965;SDS011;50151;52.030;5.350;2023-04-12T06:02:51;2.65;;;1.02;;
63965;SDS011;50151;52.030;5.350;2023-04-12T06:05:18;8.18;;;0.98;;
63965;SDS011;50151;52.030;5.350;2023-04-12T06:07:45;2.47;;;1.08;;
63965;SDS011;50151;52.030;5.350;2023-04-12T06:10:13;2.88;;;1.05;;
63965;SDS011;50151;52.030;5.350;2023-04-12T06:12:44;2.45;;;1.00;;
63965;SDS011;50151;52.030;5.350;2023-04-12T06:15:10;1.40;;;0.95;;
63965;SDS011;50151;52.030;5.350;2023-04-12T06:17:37;4.05;;;0.82;;
63965;SDS011;50151;52.030;5.350;2023-04-12T06:20:04;2.38;;;1.00;;
63965;SDS011;50151;52.030;5.350;2023-04-12T06:22:35;1.73;;;0.95;;
63965;SDS011;50151;52.030;5.350;2023-04-12T06:25:02;5.57;;;1.20;;
63965;SDS011;50151;52.030;5.350;2023-04-12T06:27:29;2.17;;;0.90;;
63965;SDS011;50151;52.030;5.350;2023-04-12T06:29:56;2.97;;;1.13;;
63965;SDS011;50151;52.030;5.350;2023-04-12T06:32:23;3.17;;;1.27;;
63965;SDS011;50151;52.030;5.350;2023-04-12T06:34:50;2.70;;;1.17;;
63965;SDS011;50151;52.030;5.350;2023-04-12T06:37:17;2.70;;;1.13;;
63965;SDS011;50151;52.030;5.350;2023-04-12T06:39:44;1.42;;;1.02;;
63965;SDS011;50151;52.030;5.350;2023-04-12T06:42:11;1.33;;;0.93;;
63965;SDS011;50151;52.030;5.350;2023-04-12T06:44:40;3.95;;;1.13;;
63965;SDS011;50151;52.030;5.350;2023-04-12T06:47:06;4.80;;;1.08;;
63965;SDS011;50151;52.030;5.350;2023-04-12T06:49:33;5.03;;;1.23;;
63965;SDS011;50151;52.030;5.350;2023-04-12T06:52:00;2.35;;;1.30;;
63965;SDS011;50151;52.030;5.350;2023-04-12T06:54:27;7.40;;;1.40;;
63965;SDS011;50151;52.030;5.350;2023-04-12T06:56:54;3.28;;;1.13;;
63965;SDS011;50151;52.030;5.350;2023-04-12T06:59:22;1.52;;;1.20;;
63965;SDS011;50151;52.030;5.350;2023-04-12T07:01:49;3.05;;;1.40;;
63965;SDS011;50151;52.030;5.350;2023-04-12T07:04:16;2.72;;;1.25;;
63965;SDS011;50151;52.030;5.350;2023-04-12T07:06:43;2.40;;;1.15;;
63965;SDS011;50151;52.030;5.350;2023-04-12T07:09:09;3.45;;;1.33;;
63965;SDS011;50151;52.030;5.350;2023-04-12T07:11:36;2.35;;;1.38;;
63965;SDS011;50151;52.030;5.350;2023-04-12T07:14:03;3.17;;;1.23;;
63965;SDS011;50151;52.030;5.350;2023-04-12T07:16:29;3.42;;;1.90;;
63965;SDS011;50151;52.030;5.350;2023-04-12T07:18:58;2.78;;;1.70;;
63965;SDS011;50151;52.030;5.350;2023-04-12T07:21:25;7.30;;;2.28;;
63965;SDS011;50151;52.030;5.350;2023-04-12T07:23:53;5.03;;;1.80;;
63965;SDS011;50151;52.030;5.350;2023-04-12T07:26:20;4.00;;;1.60;;
63965;SDS011;50151;52.030;5.350;2023-04-12T07:28:47;8.27;;;2.30;;
63965;SDS011;50151;52.030;5.350;2023-04-12T07:31:14;5.25;;;1.90;;
63965;SDS011;50151;52.030;5.350;2023-04-12T07:33:41;4.32;;;1.85;;
63965;SDS011;50151;52.030;5.350;2023-04-12T07:36:08;6.25;;;1.98;;
63965;SDS011;50151;52.030;5.350;2023-04-12T07:38:36;7.55;;;2.45;;
63965;SDS011;50151;52.030;5.350;2023-04-12T07:41:03;10.63;;;2.72;;
63965;SDS011;50151;52.030;5.350;2023-04-12T07:43:29;4.75;;;2.15;;
63965;SDS011;50151;52.030;5.350;2023-04-12T07:45:56;3.97;;;2.00;;
63965;SDS011;50151;52.030;5.350;2023-04-12T07:48:23;5.78;;;2.47;;
63965;SDS011;50151;52.030;5.350;2023-04-12T07:50:49;8.40;;;2.22;;
63965;SDS011;50151;52.030;5.350;2023-04-12T07:53:17;4.70;;;2.58;;
63965;SDS011;50151;52.030;5.350;2023-04-12T07:55:46;9.77;;;2.70;;
63965;SDS011;50151;52.030;5.350;2023-04-12T07:58:13;7.38;;;2.10;;
63965;SDS011;50151;52.030;5.350;2023-04-12T08:00:42;8.05;;;2.15;;
63965;SDS011;50151;52.030;5.350;2023-04-12T08:03:12;9.23;;;2.50;;
63965;SDS011;50151;52.030;5.350;2023-04-12T08:05:40;12.35;;;2.55;;
63965;SDS011;50151;52.030;5.350;2023-04-12T08:08:07;6.65;;;2.00;;
63965;SDS011;50151;52.030;5.350;2023-04-12T08:10:37;7.53;;;1.75;;
63965;SDS011;50151;52.030;5.350;2023-04-12T08:13:05;9.55;;;2.47;;
63965;SDS011;50151;52.030;5.350;2023-04-12T08:15:32;8.75;;;2.10;;
63965;SDS011;50151;52.030;5.350;2023-04-12T08:18:00;10.82;;;2.00;;
63965;SDS011;50151;52.030;5.350;2023-04-12T08:20:27;8.00;;;2.00;;
63965;SDS011;50151;52.030;5.350;2023-04-12T08:22:54;12.15;;;2.40;;
63965;SDS011;50151;52.030;5.350;2023-04-12T08:25:21;10.20;;;1.70;;
63965;SDS011;50151;52.030;5.350;2023-04-12T08:27:49;12.32;;;1.60;;
63965;SDS011;50151;52.030;5.350;2023-04-12T08:30:17;21.35;;;2.42;;
63965;SDS011;50151;52.030;5.350;2023-04-12T08:32:44;11.48;;;1.75;;
63965;SDS011;50151;52.030;5.350;2023-04-12T08:35:11;11.38;;;2.17;;
63965;SDS011;50151;52.030;5.350;2023-04-12T08:37:37;10.75;;;2.30;;
63965;SDS011;50151;52.030;5.350;2023-04-12T08:40:05;18.35;;;2.80;;
63965;SDS011;50151;52.030;5.350;2023-04-12T08:42:33;20.08;;;2.67;;
63965;SDS011;50151;52.030;5.350;2023-04-12T08:45:05;19.85;;;2.33;;
63965;SDS011;50151;52.030;5.350;2023-04-12T08:47:33;22.70;;;3.25;;
63965;SDS011;50151;52.030;5.350;2023-04-12T08:50:03;15.38;;;2.47;;
63965;SDS011;50151;52.030;5.350;2023-04-12T08:52:34;18.73;;;2.75;;
63965;SDS011;50151;52.030;5.350;2023-04-12T08:55:03;18.30;;;2.38;;
63965;SDS011;50151;52.030;5.350;2023-04-12T08:57:31;11.30;;;2.80;;
63965;SDS011;50151;52.030;5.350;2023-04-12T09:00:01;23.92;;;3.10;;
63965;SDS011;50151;52.030;5.350;2023-04-12T09:02:29;15.30;;;2.88;;
63965;SDS011;50151;52.030;5.350;2023-04-12T09:04:56;15.88;;;2.38;;
63965;SDS011;50151;52.030;5.350;2023-04-12T09:07:23;10.57;;;1.83;;
63965;SDS011;50151;52.030;5.350;2023-04-12T09:09:53;15.27;;;2.45;;
63965;SDS011;50151;52.030;5.350;2023-04-12T09:12:21;12.13;;;2.17;;
63965;SDS011;50151;52.030;5.350;2023-04-12T09:15:08;20.25;;;2.30;;
63965;SDS011;50151;52.030;5.350;2023-04-12T09:17:38;14.05;;;2.70;;
63965;SDS011;50151;52.030;5.350;2023-04-12T09:22:42;14.57;;;1.80;;
63965;SDS011;50151;52.030;5.350;2023-04-12T09:25:12;16.00;;;2.67;;
63965;SDS011;50151;52.030;5.350;2023-04-12T09:27:46;13.48;;;2.75;;
63965;SDS011;50151;52.030;5.350;2023-04-12T09:30:17;17.17;;;2.20;;
63965;SDS011;50151;52.030;5.350;2023-04-12T09:32:45;9.75;;;2.40;;
63965;SDS011;50151;52.030;5.350;2023-04-12T09:35:14;13.70;;;2.55;;
63965;SDS011;50151;52.030;5.350;2023-04-12T09:37:41;14.35;;;2.50;;
63965;SDS011;50151;52.030;5.350;2023-04-12T09:40:08;14.13;;;2.90;;
63965;SDS011;50151;52.030;5.350;2023-04-12T09:42:41;14.38;;;2.15;;
63965;SDS011;50151;52.030;5.350;2023-04-12T09:45:24;18.13;;;2.67;;
63965;SDS011;50151;52.030;5.350;2023-04-12T09:47:51;19.60;;;2.58;;
63965;SDS011;50151;52.030;5.350;2023-04-12T09:50:20;17.65;;;3.53;;
63965;SDS011;50151;52.030;5.350;2023-04-12T09:52:52;21.27;;;2.75;;
63965;SDS011;50151;52.030;5.350;2023-04-12T09:55:20;14.05;;;2.58;;
63965;SDS011;50151;52.030;5.350;2023-04-12T09:57:49;23.95;;;2.60;;
63965;SDS011;50151;52.030;5.350;2023-04-12T10:00:18;19.27;;;2.70;;
63965;SDS011;50151;52.030;5.350;2023-04-12T10:02:48;16.08;;;2.17;;
63965;SDS011;50151;52.030;5.350;2023-04-12T10:05:18;14.98;;;2.83;;
63965;SDS011;50151;52.030;5.350;2023-04-12T10:07:48;19.25;;;3.05;;
63965;SDS011;50151;52.030;5.350;2023-04-12T10:10:16;22.13;;;2.60;;
63965;SDS011;50151;52.030;5.350;2023-04-12T10:12:44;12.32;;;1.83;;
63965;SDS011;50151;52.030;5.350;2023-04-12T10:15:12;17.55;;;2.72;;
63965;SDS011;50151;52.030;5.350;2023-04-12T10:17:43;23.05;;;3.15;;
63965;SDS011;50151;52.030;5.350;2023-04-12T10:20:13;15.82;;;2.58;;
63965;SDS011;50151;52.030;5.350;2023-04-12T10:22:42;12.65;;;2.30;;
63965;SDS011;50151;52.030;5.350;2023-04-12T10:25:15;14.05;;;2.55;;
63965;SDS011;50151;52.030;5.350;2023-04-12T10:27:47;16.77;;;2.72;;
63965;SDS011;50151;52.030;5.350;2023-04-12T10:32:44;18.30;;;2.70;;
63965;SDS011;50151;52.030;5.350;2023-04-12T10:35:11;17.10;;;2.58;;
63965;SDS011;50151;52.030;5.350;2023-04-12T10:40:28;20.45;;;2.40;;
63965;SDS011;50151;52.030;5.350;2023-04-12T10:45:48;7.05;;;1.50;;
63965;SDS011;50151;52.030;5.350;2023-04-12T10:48:27;11.95;;;2.10;;
63965;SDS011;50151;52.030;5.350;2023-04-12T10:51:14;10.50;;;2.10;;
63965;SDS011;50151;52.030;5.350;2023-04-12T10:53:50;15.80;;;2.97;;
63965;SDS011;50151;52.030;5.350;2023-04-12T10:58:59;14.00;;;2.50;;
63965;SDS011;50151;52.030;5.350;2023-04-12T11:01:27;17.20;;;2.90;;
63965;SDS011;50151;52.030;5.350;2023-04-12T11:14:27;14.23;;;2.85;;
63965;SDS011;50151;52.030;5.350;2023-04-12T11:20:04;13.00;;;2.45;;
63965;SDS011;50151;52.030;5.350;2023-04-12T11:22:27;16.73;;;2.85;;
63965;SDS011;50151;52.030;5.350;2023-04-12T11:24:56;8.32;;;2.05;;
63965;SDS011;50151;52.030;5.350;2023-04-12T11:27:24;10.20;;;2.53;;
63965;SDS011;50151;52.030;5.350;2023-04-12T11:29:55;8.98;;;2.05;;
63965;SDS011;50151;52.030;5.350;2023-04-12T11:32:24;10.90;;;1.85;;
63965;SDS011;50151;52.030;5.350;2023-04-12T11:34:53;8.68;;;1.33;;
63965;SDS011;50151;52.030;5.350;2023-04-12T11:37:21;12.63;;;1.95;;
63965;SDS011;50151;52.030;5.350;2023-04-12T11:39:50;11.32;;;1.77;;
63965;SDS011;50151;52.030;5.350;2023-04-12T11:42:18;16.00;;;1.92;;
63965;SDS011;50151;52.030;5.350;2023-04-12T11:44:47;7.05;;;1.85;;
63965;SDS011;50151;52.030;5.350;2023-04-12T11:47:23;6.95;;;1.13;;
63965;SDS011;50151;52.030;5.350;2023-04-12T11:49:57;5.95;;;1.42;;
63965;SDS011;50151;52.030;5.350;2023-04-12T11:52:28;8.52;;;1.80;;
63965;SDS011;50151;52.030;5.350;2023-04-12T11:54:58;9.55;;;1.88;;
63965;SDS011;50151;52.030;5.350;2023-04-12T11:57:26;8.65;;;1.70;;
63965;SDS011;50151;52.030;5.350;2023-04-12T11:59:55;10.65;;;1.88;;
63965;SDS011;50151;52.030;5.350;2023-04-12T12:02:23;8.85;;;1.17;;
63965;SDS011;50151;52.030;5.350;2023-04-12T12:04:56;11.70;;;1.55;;
63965;SDS011;50151;52.030;5.350;2023-04-12T12:07:23;9.85;;;2.13;;
63965;SDS011;50151;52.030;5.350;2023-04-12T12:09:51;9.18;;;1.70;;
63965;SDS011;50151;52.030;5.350;2023-04-12T12:12:19;9.93;;;1.90;;
63965;SDS011;50151;52.030;5.350;2023-04-12T12:14:49;11.75;;;1.50;;
63965;SDS011;50151;52.030;5.350;2023-04-12T12:17:15;7.15;;;1.40;;
63965;SDS011;50151;52.030;5.350;2023-04-12T12:19:43;7.80;;;2.00;;
63965;SDS011;50151;52.030;5.350;2023-04-12T12:22:20;6.25;;;1.30;;
63965;SDS011;50151;52.030;5.350;2023-04-12T12:24:54;5.15;;;1.00;;
63965;SDS011;50151;52.030;5.350;2023-04-12T12:27:23;5.85;;;0.98;;
63965;SDS011;50151;52.030;5.350;2023-04-12T12:29:59;6.00;;;1.67;;
63965;SDS011;50151;52.030;5.350;2023-04-12T12:32:33;14.70;;;2.55;;
63965;SDS011;50151;52.030;5.350;2023-04-12T12:35:06;11.77;;;2.00;;
63965;SDS011;50151;52.030;5.350;2023-04-12T12:37:46;3.88;;;0.88;;
63965;SDS011;50151;52.030;5.350;2023-04-12T12:40:15;6.78;;;1.30;;
63965;SDS011;50151;52.030;5.350;2023-04-12T12:42:43;8.30;;;1.60;;
63965;SDS011;50151;52.030;5.350;2023-04-12T12:45:15;6.13;;;1.30;;
63965;SDS011;50151;52.030;5.350;2023-04-12T12:47:45;9.63;;;1.60;;
63965;SDS011;50151;52.030;5.350;2023-04-12T12:50:15;8.30;;;1.27;;
63965;SDS011;50151;52.030;5.350;2023-04-12T12:52:43;7.93;;;1.73;;
63965;SDS011;50151;52.030;5.350;2023-04-12T12:55:12;9.43;;;1.75;;
63965;SDS011;50151;52.030;5.350;2023-04-12T12:57:43;4.18;;;0.90;;
63965;SDS011;50151;52.030;5.350;2023-04-12T13:00:27;3.78;;;1.08;;
63965;SDS011;50151;52.030;5.350;2023-04-12T13:02:54;4.95;;;1.33;;
63965;SDS011;50151;52.030;5.350;2023-04-12T13:05:22;5.35;;;1.33;;
63965;SDS011;50151;52.030;5.350;2023-04-12T13:07:48;6.05;;;0.85;;
63965;SDS011;50151;52.030;5.350;2023-04-12T13:10:15;3.42;;;0.77;;
63965;SDS011;50151;52.030;5.350;2023-04-12T13:12:42;3.75;;;1.17;;
63965;SDS011;50151;52.030;5.350;2023-04-12T13:15:09;6.40;;;0.90;;
63965;SDS011;50151;52.030;5.350;2023-04-12T13:17:50;5.05;;;0.90;;
63965;SDS011;50151;52.030;5.350;2023-04-12T13:20:17;4.65;;;0.70;;
63965;SDS011;50151;52.030;5.350;2023-04-12T13:22:43;3.15;;;1.00;;
63965;SDS011;50151;52.030;5.350;2023-04-12T13:25:10;4.05;;;0.77;;
63965;SDS011;50151;52.030;5.350;2023-04-12T13:27:37;3.85;;;1.00;;
63965;SDS011;50151;52.030;5.350;2023-04-12T13:30:04;5.38;;;0.98;;
63965;SDS011;50151;52.030;5.350;2023-04-12T13:32:31;3.63;;;0.90;;
63965;SDS011;50151;52.030;5.350;2023-04-12T13:34:58;5.68;;;1.20;;
63965;SDS011;50151;52.030;5.350;2023-04-12T13:37:24;4.05;;;0.93;;
63965;SDS011;50151;52.030;5.350;2023-04-12T13:39:51;5.65;;;1.35;;
63965;SDS011;50151;52.030;5.350;2023-04-12T13:42:18;7.72;;;1.30;;
63965;SDS011;50151;52.030;5.350;2023-04-12T13:44:45;4.65;;;1.10;;
63965;SDS011;50151;52.030;5.350;2023-04-12T13:47:14;4.97;;;1.00;;
63965;SDS011;50151;52.030;5.350;2023-04-12T13:49:41;3.80;;;0.93;;
63965;SDS011;50151;52.030;5.350;2023-04-12T13:52:08;5.22;;;1.05;;
63965;SDS011;50151;52.030;5.350;2023-04-12T13:54:34;5.43;;;0.80;;
63965;SDS011;50151;52.030;5.350;2023-04-12T13:57:01;4.28;;;1.00;;
63965;SDS011;50151;52.030;5.350;2023-04-12T13:59:29;3.47;;;1.02;;
63965;SDS011;50151;52.030;5.350;2023-04-12T14:01:55;3.05;;;0.70;;
63965;SDS011;50151;52.030;5.350;2023-04-12T14:04:22;3.90;;;1.00;;
63965;SDS011;50151;52.030;5.350;2023-04-12T14:06:52;3.47;;;0.98;;
63965;SDS011;50151;52.030;5.350;2023-04-12T14:09:26;5.47;;;1.00;;
63965;SDS011;50151;52.030;5.350;2023-04-12T14:11:57;2.70;;;0.60;;
63965;SDS011;50151;52.030;5.350;2023-04-12T14:14:25;5.82;;;1.23;;
63965;SDS011;50151;52.030;5.350;2023-04-12T14:16:53;3.47;;;0.63;;
63965;SDS011;50151;52.030;5.350;2023-04-12T14:19:23;2.10;;;0.60;;
63965;SDS011;50151;52.030;5.350;2023-04-12T14:21:50;7.13;;;0.80;;
63965;SDS011;50151;52.030;5.350;2023-04-12T14:24:16;2.85;;;0.75;;
63965;SDS011;50151;52.030;5.350;2023-04-12T14:26:44;4.65;;;0.80;;
63965;SDS011;50151;52.030;5.350;2023-04-12T14:29:11;7.20;;;1.30;;
63965;SDS011;50151;52.030;5.350;2023-04-12T14:31:38;2.55;;;0.70;;
63965;SDS011;50151;52.030;5.350;2023-04-12T14:34:05;2.25;;;0.80;;
63965;SDS011;50151;52.030;5.350;2023-04-12T14:36:34;4.45;;;0.57;;
63965;SDS011;50151;52.030;5.350;2023-04-12T14:39:01;2.67;;;0.65;;
63965;SDS011;50151;52.030;5.350;2023-04-12T14:41:29;3.42;;;1.05;;
63965;SDS011;50151;52.030;5.350;2023-04-12T14:43:59;4.95;;;0.88;;
63965;SDS011;50151;52.030;5.350;2023-04-12T14:46:26;4.38;;;0.90;;
63965;SDS011;50151;52.030;5.350;2023-04-12T14:48:53;3.17;;;1.10;;
63965;SDS011;50151;52.030;5.350;2023-04-12T14:51:22;1.35;;;0.75;;
63965;SDS011;50151;52.030;5.350;2023-04-12T14:53:49;2.28;;;0.70;;
63965;SDS011;50151;52.030;5.350;2023-04-12T14:56:18;2.80;;;0.65;;
63965;SDS011;50151;52.030;5.350;2023-04-12T14:58:52;3.88;;;0.73;;
63965;SDS011;50151;52.030;5.350;2023-04-12T15:01:23;2.28;;;0.63;;
63965;SDS011;50151;52.030;5.350;2023-04-12T15:03:50;4.38;;;0.70;;
63965;SDS011;50151;52.030;5.350;2023-04-12T15:06:21;1.67;;;0.47;;
63965;SDS011;50151;52.030;5.350;2023-04-12T15:08:52;2.95;;;0.85;;
63965;SDS011;50151;52.030;5.350;2023-04-12T15:11:22;2.90;;;0.77;;
63965;SDS011;50151;52.030;5.350;2023-04-12T15:13:52;0.98;;;0.50;;
63965;SDS011;50151;52.030;5.350;2023-04-12T15:16:20;2.28;;;0.73;;
63965;SDS011;50151;52.030;5.350;2023-04-12T15:18:47;4.63;;;0.93;;
63965;SDS011;50151;52.030;5.350;2023-04-12T15:21:15;3.00;;;0.80;;
63965;SDS011;50151;52.030;5.350;2023-04-12T15:23:41;7.07;;;0.98;;
63965;SDS011;50151;52.030;5.350;2023-04-12T15:26:08;2.70;;;0.90;;
63965;SDS011;50151;52.030;5.350;2023-04-12T15:28:35;2.08;;;0.63;;
63965;SDS011;50151;52.030;5.350;2023-04-12T15:31:03;4.97;;;0.82;;
63965;SDS011;50151;52.030;5.350;2023-04-12T15:33:30;5.30;;;0.70;;
63965;SDS011;50151;52.030;5.350;2023-04-12T15:36:00;2.60;;;0.90;;